sensor_id;sensor_type;location;lat;lon;timestamp;P1;durP1;ratioP1;P2;durP2;ratioP2
289;SDS011;13193;48.874;9.086;2022-10-31T00:01:32;19.50;;;8.53;;
289;SDS011;13193;48.874;9.086;2022-10-31T00:04:00;17.77;;;8.03;;
289;SDS011;13193;48.874;9.086;2022-10-31T00:06:26;20.33;;;8.50;;
289;SDS011;13193;48.874;9.086;2022-10-31T00:08:52;18.27;;;9.33;;
289;SDS011;13193;48.874;9.086;2022-10-31T00:11:20;20.00;;;8.63;;
289;SDS011;13193;48.874;9.086;2022-10-31T00:13:46;21.67;;;8.10;;
289;SDS011;13193;48.874;9.086;2022-10-31T00:16:15;16.00;;;7.50;;
289;SDS011;13193;48.874;9.086;2022-10-31T00:18:41;21.03;;;8.17;;
289;SDS011;13193;48.874;9.086;2022-10-31T00:21:07;16.10;;;8.47;;
289;SDS011;13193;48.874;9.086;2022-10-31T00:23:33;14.03;;;7.30;;
289;SDS011;13193;48.874;9.086;2022-10-31T00:26:02;18.03;;;8.33;;
289;SDS011;13193;48.874;9.086;2022-10-31T00:28:29;28.90;;;8.70;;
289;SDS011;13193;48.874;9.086;2022-10-31T00:30:58;17.60;;;8.43;;
289;SDS011;13193;48.874;9.086;2022-10-31T00:33:24;15.03;;;7.73;;
289;SDS011;13193;48.874;9.086;2022-10-31T00:35:50;19.07;;;8.10;;
289;SDS011;13193;48.874;9.086;2022-10-31T00:38:16;15.93;;;7.40;;
289;SDS011;13193;48.874;9.086;2022-10-31T00:40:41;16.80;;;9.07;;
289;SDS011;13193;48.874;9.086;2022-10-31T00:43:07;19.53;;;6.50;;
289;SDS011;13193;48.874;9.086;2022-10-31T00:45:33;15.70;;;8.20;;
289;SDS011;13193;48.874;9.086;2022-10-31T00:47:58;18.60;;;7.43;;
289;SDS011;13193;48.874;9.086;2022-10-31T00:50:24;19.27;;;7.60;;
289;SDS011;13193;48.874;9.086;2022-10-31T00:52:49;14.97;;;7.30;;
289;SDS011;13193;48.874;9.086;2022-10-31T00:55:15;16.33;;;7.53;;
289;SDS011;13193;48.874;9.086;2022-10-31T00:57:40;12.27;;;7.77;;
289;SDS011;13193;48.874;9.086;2022-10-31T01:00:06;20.00;;;7.47;;
289;SDS011;13193;48.874;9.086;2022-10-31T01:02:32;13.67;;;6.90;;
289;SDS011;13193;48.874;9.086;2022-10-31T01:04:58;16.23;;;6.93;;
289;SDS011;13193;48.874;9.086;2022-10-31T01:07:23;15.73;;;7.33;;
289;SDS011;13193;48.874;9.086;2022-10-31T01:09:49;16.87;;;6.67;;
289;SDS011;13193;48.874;9.086;2022-10-31T01:12:14;14.43;;;6.50;;
289;SDS011;13193;48.874;9.086;2022-10-31T01:14:43;20.37;;;7.83;;
289;SDS011;13193;48.874;9.086;2022-10-31T01:17:10;15.73;;;6.87;;
289;SDS011;13193;48.874;9.086;2022-10-31T01:19:36;15.73;;;7.10;;
289;SDS011;13193;48.874;9.086;2022-10-31T01:22:02;16.50;;;7.27;;
289;SDS011;13193;48.874;9.086;2022-10-31T01:24:27;16.60;;;6.90;;
289;SDS011;13193;48.874;9.086;2022-10-31T01:26:53;13.10;;;7.27;;
289;SDS011;13193;48.874;9.086;2022-10-31T01:29:18;14.73;;;7.27;;
289;SDS011;13193;48.874;9.086;2022-10-31T01:31:44;13.43;;;6.77;;
289;SDS011;13193;48.874;9.086;2022-10-31T01:34:13;12.37;;;6.97;;
289;SDS011;13193;48.874;9.086;2022-10-31T01:36:41;13.20;;;6.40;;
289;SDS011;13193;48.874;9.086;2022-10-31T01:39:09;16.07;;;7.70;;
289;SDS011;13193;48.874;9.086;2022-10-31T01:41:37;17.77;;;6.83;;
289;SDS011;13193;48.874;9.086;2022-10-31T01:46:41;26.20;;;6.77;;
289;SDS011;13193;48.874;9.086;2022-10-31T01:49:23;14.90;;;6.80;;
289;SDS011;13193;48.874;9.086;2022-10-31T01:51:59;15.90;;;6.50;;
289;SDS011;13193;48.874;9.086;2022-10-31T01:54:25;19.23;;;6.70;;
289;SDS011;13193;48.874;9.086;2022-10-31T01:56:55;10.80;;;6.10;;
289;SDS011;13193;48.874;9.086;2022-10-31T01:59:22;21.53;;;5.87;;
289;SDS011;13193;48.874;9.086;2022-10-31T02:01:52;15.70;;;7.10;;
289;SDS011;13193;48.874;9.086;2022-10-31T02:04:18;18.50;;;7.07;;
289;SDS011;13193;48.874;9.086;2022-10-31T02:06:46;16.63;;;7.00;;
289;SDS011;13193;48.874;9.086;2022-10-31T02:09:16;19.63;;;6.30;;
289;SDS011;13193;48.874;9.086;2022-10-31T02:11:48;10.77;;;5.77;;
289;SDS011;13193;48.874;9.086;2022-10-31T02:14:16;15.50;;;6.10;;
289;SDS011;13193;48.874;9.086;2022-10-31T02:16:42;12.70;;;6.03;;
289;SDS011;13193;48.874;9.086;2022-10-31T02:19:08;19.20;;;7.07;;
289;SDS011;13193;48.874;9.086;2022-10-31T02:22:16;17.93;;;7.40;;
289;SDS011;13193;48.874;9.086;2022-10-31T02:24:44;11.33;;;6.13;;
289;SDS011;13193;48.874;9.086;2022-10-31T02:27:31;24.53;;;6.40;;
289;SDS011;13193;48.874;9.086;2022-10-31T02:30:23;14.40;;;6.10;;
289;SDS011;13193;48.874;9.086;2022-10-31T02:33:07;22.43;;;6.77;;
289;SDS011;13193;48.874;9.086;2022-10-31T02:41:13;16.37;;;6.67;;
289;SDS011;13193;48.874;9.086;2022-10-31T02:43:47;9.97;;;5.30;;
289;SDS011;13193;48.874;9.086;2022-10-31T02:46:54;15.20;;;6.43;;
289;SDS011;13193;48.874;9.086;2022-10-31T02:49:29;14.30;;;6.90;;
289;SDS011;13193;48.874;9.086;2022-10-31T02:51:59;15.50;;;6.40;;
289;SDS011;13193;48.874;9.086;2022-10-31T02:54:25;19.07;;;7.00;;
289;SDS011;13193;48.874;9.086;2022-10-31T02:57:00;14.97;;;6.50;;
289;SDS011;13193;48.874;9.086;2022-10-31T02:59:31;16.37;;;6.10;;
289;SDS011;13193;48.874;9.086;2022-10-31T03:02:09;10.47;;;5.27;;
289;SDS011;13193;48.874;9.086;2022-10-31T03:09:59;11.53;;;5.40;;
289;SDS011;13193;48.874;9.086;2022-10-31T03:15:32;13.83;;;6.10;;
289;SDS011;13193;48.874;9.086;2022-10-31T03:20:43;13.47;;;5.63;;
289;SDS011;13193;48.874;9.086;2022-10-31T03:23:15;14.70;;;6.00;;
289;SDS011;13193;48.874;9.086;2022-10-31T03:25:43;10.93;;;5.40;;
289;SDS011;13193;48.874;9.086;2022-10-31T03:28:10;11.60;;;5.70;;
289;SDS011;13193;48.874;9.086;2022-10-31T03:30:41;16.90;;;6.30;;
289;SDS011;13193;48.874;9.086;2022-10-31T03:33:10;16.83;;;5.93;;
289;SDS011;13193;48.874;9.086;2022-10-31T03:35:41;16.77;;;5.47;;
289;SDS011;13193;48.874;9.086;2022-10-31T03:38:09;10.73;;;5.67;;
289;SDS011;13193;48.874;9.086;2022-10-31T03:40:36;15.43;;;5.07;;
289;SDS011;13193;48.874;9.086;2022-10-31T03:43:05;19.47;;;6.13;;
289;SDS011;13193;48.874;9.086;2022-10-31T03:45:36;16.83;;;6.07;;
289;SDS011;13193;48.874;9.086;2022-10-31T03:48:07;16.63;;;5.67;;
289;SDS011;13193;48.874;9.086;2022-10-31T03:50:38;10.93;;;6.50;;
289;SDS011;13193;48.874;9.086;2022-10-31T03:53:15;8.27;;;4.97;;
289;SDS011;13193;48.874;9.086;2022-10-31T03:55:51;12.20;;;5.73;;
289;SDS011;13193;48.874;9.086;2022-10-31T04:01:38;17.03;;;6.30;;
289;SDS011;13193;48.874;9.086;2022-10-31T04:04:08;17.43;;;5.67;;
289;SDS011;13193;48.874;9.086;2022-10-31T04:06:35;14.63;;;5.80;;
289;SDS011;13193;48.874;9.086;2022-10-31T04:09:04;12.37;;;5.07;;
289;SDS011;13193;48.874;9.086;2022-10-31T04:11:47;11.03;;;5.87;;
289;SDS011;13193;48.874;9.086;2022-10-31T04:14:15;10.93;;;5.13;;
289;SDS011;13193;48.874;9.086;2022-10-31T04:16:41;11.73;;;5.57;;
289;SDS011;13193;48.874;9.086;2022-10-31T04:19:09;16.73;;;6.00;;
289;SDS011;13193;48.874;9.086;2022-10-31T04:21:35;13.03;;;5.83;;
289;SDS011;13193;48.874;9.086;2022-10-31T04:24:00;15.13;;;5.70;;
289;SDS011;13193;48.874;9.086;2022-10-31T04:26:26;12.93;;;5.80;;
289;SDS011;13193;48.874;9.086;2022-10-31T04:28:51;16.73;;;6.40;;
289;SDS011;13193;48.874;9.086;2022-10-31T04:31:17;14.50;;;5.07;;
289;SDS011;13193;48.874;9.086;2022-10-31T04:33:43;14.50;;;4.90;;
289;SDS011;13193;48.874;9.086;2022-10-31T04:36:09;10.47;;;5.53;;
289;SDS011;13193;48.874;9.086;2022-10-31T04:38:34;18.57;;;7.27;;
289;SDS011;13193;48.874;9.086;2022-10-31T04:41:00;12.87;;;6.50;;
289;SDS011;13193;48.874;9.086;2022-10-31T04:43:26;11.13;;;5.70;;
289;SDS011;13193;48.874;9.086;2022-10-31T04:45:51;11.60;;;5.43;;
289;SDS011;13193;48.874;9.086;2022-10-31T04:48:17;10.83;;;4.57;;
289;SDS011;13193;48.874;9.086;2022-10-31T04:50:42;9.17;;;5.67;;
289;SDS011;13193;48.874;9.086;2022-10-31T04:53:08;18.70;;;5.77;;
289;SDS011;13193;48.874;9.086;2022-10-31T04:55:37;15.07;;;6.17;;
289;SDS011;13193;48.874;9.086;2022-10-31T04:58:02;12.20;;;5.43;;
289;SDS011;13193;48.874;9.086;2022-10-31T05:00:28;10.77;;;5.23;;
289;SDS011;13193;48.874;9.086;2022-10-31T05:02:55;8.87;;;5.00;;
289;SDS011;13193;48.874;9.086;2022-10-31T05:05:23;10.27;;;5.07;;
289;SDS011;13193;48.874;9.086;2022-10-31T05:07:52;12.83;;;6.00;;
289;SDS011;13193;48.874;9.086;2022-10-31T05:10:19;12.43;;;4.93;;
289;SDS011;13193;48.874;9.086;2022-10-31T05:12:47;15.03;;;5.80;;
289;SDS011;13193;48.874;9.086;2022-10-31T05:15:14;13.90;;;5.70;;
289;SDS011;13193;48.874;9.086;2022-10-31T05:17:40;16.10;;;5.83;;
289;SDS011;13193;48.874;9.086;2022-10-31T05:20:06;17.07;;;5.37;;
289;SDS011;13193;48.874;9.086;2022-10-31T05:22:32;11.43;;;5.07;;
289;SDS011;13193;48.874;9.086;2022-10-31T05:24:57;12.60;;;5.20;;
289;SDS011;13193;48.874;9.086;2022-10-31T05:27:23;15.60;;;5.90;;
289;SDS011;13193;48.874;9.086;2022-10-31T05:29:48;10.30;;;5.60;;
289;SDS011;13193;48.874;9.086;2022-10-31T05:32:14;10.73;;;6.40;;
289;SDS011;13193;48.874;9.086;2022-10-31T05:34:40;7.47;;;4.77;;
289;SDS011;13193;48.874;9.086;2022-10-31T05:37:05;14.10;;;5.37;;
289;SDS011;13193;48.874;9.086;2022-10-31T05:39:31;15.10;;;5.63;;
289;SDS011;13193;48.874;9.086;2022-10-31T05:41:57;24.03;;;5.27;;
289;SDS011;13193;48.874;9.086;2022-10-31T05:44:22;13.57;;;5.90;;
289;SDS011;13193;48.874;9.086;2022-10-31T05:46:48;10.70;;;6.20;;
289;SDS011;13193;48.874;9.086;2022-10-31T05:49:13;13.30;;;5.70;;
289;SDS011;13193;48.874;9.086;2022-10-31T05:51:39;14.43;;;6.20;;
289;SDS011;13193;48.874;9.086;2022-10-31T05:54:04;14.80;;;6.87;;
289;SDS011;13193;48.874;9.086;2022-10-31T05:56:30;16.80;;;6.00;;
289;SDS011;13193;48.874;9.086;2022-10-31T05:58:56;10.07;;;5.57;;
289;SDS011;13193;48.874;9.086;2022-10-31T06:01:21;17.27;;;5.90;;
289;SDS011;13193;48.874;9.086;2022-10-31T06:03:47;11.27;;;5.00;;
289;SDS011;13193;48.874;9.086;2022-10-31T06:06:12;14.10;;;5.27;;
289;SDS011;13193;48.874;9.086;2022-10-31T06:08:38;20.20;;;6.87;;
289;SDS011;13193;48.874;9.086;2022-10-31T06:11:04;15.00;;;6.40;;
289;SDS011;13193;48.874;9.086;2022-10-31T06:13:30;13.37;;;5.67;;
289;SDS011;13193;48.874;9.086;2022-10-31T06:15:55;15.73;;;6.40;;
289;SDS011;13193;48.874;9.086;2022-10-31T06:18:21;10.37;;;5.77;;
289;SDS011;13193;48.874;9.086;2022-10-31T06:20:47;22.87;;;6.10;;
289;SDS011;13193;48.874;9.086;2022-10-31T06:23:12;11.40;;;5.27;;
289;SDS011;13193;48.874;9.086;2022-10-31T06:25:38;11.97;;;6.00;;
289;SDS011;13193;48.874;9.086;2022-10-31T06:28:04;13.73;;;6.20;;
289;SDS011;13193;48.874;9.086;2022-10-31T06:30:30;16.97;;;7.13;;
289;SDS011;13193;48.874;9.086;2022-10-31T06:33:01;16.37;;;7.43;;
289;SDS011;13193;48.874;9.086;2022-10-31T06:35:28;14.13;;;7.10;;
289;SDS011;13193;48.874;9.086;2022-10-31T06:37:53;16.07;;;7.57;;
289;SDS011;13193;48.874;9.086;2022-10-31T06:40:19;11.90;;;6.10;;
289;SDS011;13193;48.874;9.086;2022-10-31T06:42:45;14.60;;;6.57;;
289;SDS011;13193;48.874;9.086;2022-10-31T06:45:10;24.27;;;8.57;;
289;SDS011;13193;48.874;9.086;2022-10-31T06:47:36;17.07;;;6.87;;
289;SDS011;13193;48.874;9.086;2022-10-31T06:50:01;12.37;;;7.33;;
289;SDS011;13193;48.874;9.086;2022-10-31T06:52:27;25.00;;;9.60;;
289;SDS011;13193;48.874;9.086;2022-10-31T06:54:53;15.93;;;6.63;;
289;SDS011;13193;48.874;9.086;2022-10-31T06:57:18;17.60;;;6.57;;
289;SDS011;13193;48.874;9.086;2022-10-31T06:59:44;22.70;;;7.23;;
289;SDS011;13193;48.874;9.086;2022-10-31T07:02:10;15.50;;;5.97;;
289;SDS011;13193;48.874;9.086;2022-10-31T07:04:35;16.73;;;8.10;;
289;SDS011;13193;48.874;9.086;2022-10-31T07:07:01;26.83;;;9.20;;
289;SDS011;13193;48.874;9.086;2022-10-31T07:09:26;16.33;;;7.13;;
289;SDS011;13193;48.874;9.086;2022-10-31T07:11:52;17.87;;;6.83;;
289;SDS011;13193;48.874;9.086;2022-10-31T07:14:18;18.97;;;8.13;;
289;SDS011;13193;48.874;9.086;2022-10-31T07:16:44;14.33;;;7.50;;
289;SDS011;13193;48.874;9.086;2022-10-31T07:19:14;20.10;;;8.10;;
289;SDS011;13193;48.874;9.086;2022-10-31T07:21:39;22.33;;;8.17;;
289;SDS011;13193;48.874;9.086;2022-10-31T07:24:05;15.90;;;8.30;;
289;SDS011;13193;48.874;9.086;2022-10-31T07:26:30;15.33;;;6.83;;
289;SDS011;13193;48.874;9.086;2022-10-31T07:28:56;13.57;;;7.33;;
289;SDS011;13193;48.874;9.086;2022-10-31T07:31:22;25.17;;;7.87;;
289;SDS011;13193;48.874;9.086;2022-10-31T07:33:47;28.20;;;7.87;;
289;SDS011;13193;48.874;9.086;2022-10-31T07:36:13;15.77;;;8.20;;
289;SDS011;13193;48.874;9.086;2022-10-31T07:38:38;22.53;;;7.43;;
289;SDS011;13193;48.874;9.086;2022-10-31T07:41:04;16.97;;;8.73;;
289;SDS011;13193;48.874;9.086;2022-10-31T07:43:30;29.17;;;12.87;;
289;SDS011;13193;48.874;9.086;2022-10-31T07:45:55;25.70;;;13.00;;
289;SDS011;13193;48.874;9.086;2022-10-31T07:48:21;21.60;;;11.27;;
289;SDS011;13193;48.874;9.086;2022-10-31T07:50:46;24.30;;;13.30;;
289;SDS011;13193;48.874;9.086;2022-10-31T07:53:13;32.77;;;14.27;;
289;SDS011;13193;48.874;9.086;2022-10-31T07:55:39;25.77;;;13.80;;
289;SDS011;13193;48.874;9.086;2022-10-31T07:58:05;31.03;;;12.80;;
289;SDS011;13193;48.874;9.086;2022-10-31T08:00:33;20.70;;;10.70;;
289;SDS011;13193;48.874;9.086;2022-10-31T08:03:04;25.97;;;12.60;;
289;SDS011;13193;48.874;9.086;2022-10-31T08:05:31;20.60;;;10.47;;
289;SDS011;13193;48.874;9.086;2022-10-31T08:07:57;23.33;;;11.70;;
289;SDS011;13193;48.874;9.086;2022-10-31T08:10:23;18.47;;;10.30;;
289;SDS011;13193;48.874;9.086;2022-10-31T08:13:23;25.20;;;9.80;;
289;SDS011;13193;48.874;9.086;2022-10-31T08:15:42;15.03;;;9.00;;
289;SDS011;13193;48.874;9.086;2022-10-31T08:18:11;20.53;;;10.57;;
289;SDS011;13193;48.874;9.086;2022-10-31T08:20:39;27.63;;;12.13;;
289;SDS011;13193;48.874;9.086;2022-10-31T08:23:05;20.97;;;12.50;;
289;SDS011;13193;48.874;9.086;2022-10-31T08:25:32;20.87;;;10.00;;
289;SDS011;13193;48.874;9.086;2022-10-31T08:27:59;19.63;;;10.67;;
289;SDS011;13193;48.874;9.086;2022-10-31T08:30:26;26.30;;;11.50;;
289;SDS011;13193;48.874;9.086;2022-10-31T08:33:12;23.50;;;11.77;;
289;SDS011;13193;48.874;9.086;2022-10-31T08:35:40;26.20;;;11.47;;
289;SDS011;13193;48.874;9.086;2022-10-31T08:38:07;24.50;;;11.20;;
289;SDS011;13193;48.874;9.086;2022-10-31T08:40:34;27.33;;;11.47;;
289;SDS011;13193;48.874;9.086;2022-10-31T08:43:08;27.93;;;11.20;;
289;SDS011;13193;48.874;9.086;2022-10-31T08:45:39;17.50;;;9.23;;
289;SDS011;13193;48.874;9.086;2022-10-31T08:48:07;15.27;;;9.27;;
289;SDS011;13193;48.874;9.086;2022-10-31T08:50:36;14.00;;;9.10;;
289;SDS011;13193;48.874;9.086;2022-10-31T08:53:06;21.00;;;9.47;;
289;SDS011;13193;48.874;9.086;2022-10-31T08:55:34;19.60;;;10.57;;
289;SDS011;13193;48.874;9.086;2022-10-31T08:58:01;21.30;;;11.00;;
289;SDS011;13193;48.874;9.086;2022-10-31T09:00:27;23.93;;;12.93;;
289;SDS011;13193;48.874;9.086;2022-10-31T09:02:56;29.10;;;14.10;;
289;SDS011;13193;48.874;9.086;2022-10-31T09:05:23;29.37;;;14.27;;
289;SDS011;13193;48.874;9.086;2022-10-31T09:07:49;24.63;;;12.00;;
289;SDS011;13193;48.874;9.086;2022-10-31T09:10:15;21.73;;;10.37;;
289;SDS011;13193;48.874;9.086;2022-10-31T09:12:41;25.27;;;11.20;;
289;SDS011;13193;48.874;9.086;2022-10-31T09:15:07;19.93;;;10.60;;
289;SDS011;13193;48.874;9.086;2022-10-31T09:17:33;21.97;;;10.13;;
289;SDS011;13193;48.874;9.086;2022-10-31T09:19:59;16.30;;;9.20;;
289;SDS011;13193;48.874;9.086;2022-10-31T09:22:24;20.77;;;10.07;;
289;SDS011;13193;48.874;9.086;2022-10-31T09:24:50;17.47;;;8.80;;
289;SDS011;13193;48.874;9.086;2022-10-31T09:27:15;16.33;;;9.97;;
289;SDS011;13193;48.874;9.086;2022-10-31T09:29:41;15.63;;;9.20;;
289;SDS011;13193;48.874;9.086;2022-10-31T09:32:06;28.73;;;10.20;;
289;SDS011;13193;48.874;9.086;2022-10-31T09:34:32;17.00;;;8.70;;
289;SDS011;13193;48.874;9.086;2022-10-31T09:36:57;22.13;;;10.40;;
289;SDS011;13193;48.874;9.086;2022-10-31T09:39:23;20.73;;;8.80;;
289;SDS011;13193;48.874;9.086;2022-10-31T09:42:03;16.77;;;9.70;;
289;SDS011;13193;48.874;9.086;2022-10-31T09:44:45;25.07;;;8.93;;
289;SDS011;13193;48.874;9.086;2022-10-31T09:52:32;18.97;;;8.87;;
289;SDS011;13193;48.874;9.086;2022-10-31T09:55:05;19.93;;;9.13;;
289;SDS011;13193;48.874;9.086;2022-10-31T09:57:38;17.33;;;8.50;;
289;SDS011;13193;48.874;9.086;2022-10-31T10:00:07;30.70;;;8.10;;
289;SDS011;13193;48.874;9.086;2022-10-31T10:02:41;28.03;;;9.77;;
289;SDS011;13193;48.874;9.086;2022-10-31T10:05:13;17.27;;;8.43;;
289;SDS011;13193;48.874;9.086;2022-10-31T10:10:55;14.83;;;8.27;;
289;SDS011;13193;48.874;9.086;2022-10-31T10:19:26;19.30;;;9.60;;
289;SDS011;13193;48.874;9.086;2022-10-31T10:22:10;22.63;;;8.60;;
289;SDS011;13193;48.874;9.086;2022-10-31T10:30:12;19.90;;;8.97;;
289;SDS011;13193;48.874;9.086;2022-10-31T10:32:50;20.00;;;8.03;;
289;SDS011;13193;48.874;9.086;2022-10-31T10:38:00;18.00;;;8.05;;
289;SDS011;13193;48.874;9.086;2022-10-31T10:40:33;19.10;;;9.40;;
289;SDS011;13193;48.874;9.086;2022-10-31T10:45:48;17.40;;;7.77;;
289;SDS011;13193;48.874;9.086;2022-10-31T10:49:00;19.23;;;9.23;;
289;SDS011;13193;48.874;9.086;2022-10-31T10:54:59;26.73;;;9.03;;
289;SDS011;13193;48.874;9.086;2022-10-31T11:00:00;13.47;;;7.13;;
289;SDS011;13193;48.874;9.086;2022-10-31T11:02:30;14.30;;;7.80;;
289;SDS011;13193;48.874;9.086;2022-10-31T11:04:58;15.77;;;7.60;;
289;SDS011;13193;48.874;9.086;2022-10-31T11:07:25;16.70;;;7.43;;
289;SDS011;13193;48.874;9.086;2022-10-31T11:10:03;21.80;;;8.00;;
289;SDS011;13193;48.874;9.086;2022-10-31T11:12:39;14.83;;;7.07;;
289;SDS011;13193;48.874;9.086;2022-10-31T11:15:17;22.53;;;8.20;;
289;SDS011;13193;48.874;9.086;2022-10-31T11:17:47;14.30;;;6.60;;
289;SDS011;13193;48.874;9.086;2022-10-31T11:22:41;19.13;;;7.53;;
289;SDS011;13193;48.874;9.086;2022-10-31T11:25:22;30.83;;;8.83;;
289;SDS011;13193;48.874;9.086;2022-10-31T11:28:05;17.93;;;7.50;;
289;SDS011;13193;48.874;9.086;2022-10-31T11:30:42;19.90;;;7.70;;
289;SDS011;13193;48.874;9.086;2022-10-31T11:33:17;16.70;;;6.57;;
289;SDS011;13193;48.874;9.086;2022-10-31T11:35:46;12.50;;;6.90;;
289;SDS011;13193;48.874;9.086;2022-10-31T11:38:17;11.03;;;5.70;;
289;SDS011;13193;48.874;9.086;2022-10-31T11:40:51;15.63;;;6.93;;
289;SDS011;13193;48.874;9.086;2022-10-31T11:46:18;18.43;;;6.90;;
289;SDS011;13193;48.874;9.086;2022-10-31T11:48:58;14.17;;;6.20;;
289;SDS011;13193;48.874;9.086;2022-10-31T11:51:28;12.50;;;5.80;;
289;SDS011;13193;48.874;9.086;2022-10-31T11:54:00;13.33;;;6.50;;
289;SDS011;13193;48.874;9.086;2022-10-31T11:56:40;13.67;;;6.33;;
289;SDS011;13193;48.874;9.086;2022-10-31T12:01:59;12.77;;;6.70;;
289;SDS011;13193;48.874;9.086;2022-10-31T12:04:38;15.47;;;5.73;;
289;SDS011;13193;48.874;9.086;2022-10-31T12:07:11;17.67;;;6.10;;
289;SDS011;13193;48.874;9.086;2022-10-31T12:09:37;14.73;;;5.90;;
289;SDS011;13193;48.874;9.086;2022-10-31T12:17:40;10.53;;;5.20;;
289;SDS011;13193;48.874;9.086;2022-10-31T12:34:07;10.47;;;5.47;;
289;SDS011;13193;48.874;9.086;2022-10-31T12:45:54;18.40;;;6.17;;
289;SDS011;13193;48.874;9.086;2022-10-31T12:48:03;16.67;;;6.60;;
289;SDS011;13193;48.874;9.086;2022-10-31T12:58:51;25.77;;;7.33;;
289;SDS011;13193;48.874;9.086;2022-10-31T13:04:01;17.93;;;9.87;;
289;SDS011;13193;48.874;9.086;2022-10-31T13:06:47;18.00;;;7.30;;
289;SDS011;13193;48.874;9.086;2022-10-31T13:09:17;16.60;;;6.30;;
289;SDS011;13193;48.874;9.086;2022-10-31T13:11:55;14.43;;;6.43;;
289;SDS011;13193;48.874;9.086;2022-10-31T13:14:36;16.47;;;7.20;;
289;SDS011;13193;48.874;9.086;2022-10-31T13:17:08;24.93;;;8.00;;
289;SDS011;13193;48.874;9.086;2022-10-31T13:19:43;16.80;;;6.50;;
289;SDS011;13193;48.874;9.086;2022-10-31T13:22:18;15.57;;;8.80;;
289;SDS011;13193;48.874;9.086;2022-10-31T13:27:27;23.37;;;6.77;;
289;SDS011;13193;48.874;9.086;2022-10-31T13:32:48;16.40;;;7.87;;
289;SDS011;13193;48.874;9.086;2022-10-31T13:35:23;16.63;;;7.40;;
289;SDS011;13193;48.874;9.086;2022-10-31T13:38:12;17.87;;;7.00;;
289;SDS011;13193;48.874;9.086;2022-10-31T13:48:58;21.27;;;6.70;;
289;SDS011;13193;48.874;9.086;2022-10-31T13:51:25;14.53;;;6.37;;
289;SDS011;13193;48.874;9.086;2022-10-31T13:56:21;16.20;;;6.07;;
289;SDS011;13193;48.874;9.086;2022-10-31T13:59:49;14.80;;;7.80;;
289;SDS011;13193;48.874;9.086;2022-10-31T14:04:16;15.97;;;7.20;;
289;SDS011;13193;48.874;9.086;2022-10-31T14:06:49;19.73;;;6.90;;
289;SDS011;13193;48.874;9.086;2022-10-31T14:09:18;18.67;;;6.47;;
289;SDS011;13193;48.874;9.086;2022-10-31T14:11:56;22.77;;;7.83;;
289;SDS011;13193;48.874;9.086;2022-10-31T14:14:26;15.20;;;6.90;;
289;SDS011;13193;48.874;9.086;2022-10-31T14:17:00;19.20;;;6.90;;
289;SDS011;13193;48.874;9.086;2022-10-31T14:22:40;22.17;;;7.30;;
289;SDS011;13193;48.874;9.086;2022-10-31T14:28:03;20.17;;;6.60;;
289;SDS011;13193;48.874;9.086;2022-10-31T14:30:57;20.33;;;7.37;;
289;SDS011;13193;48.874;9.086;2022-10-31T14:33:44;22.63;;;7.80;;
289;SDS011;13193;48.874;9.086;2022-10-31T14:50:44;15.30;;;6.70;;
289;SDS011;13193;48.874;9.086;2022-10-31T14:55:50;23.87;;;7.90;;
289;SDS011;13193;48.874;9.086;2022-10-31T14:58:32;29.97;;;9.57;;
289;SDS011;13193;48.874;9.086;2022-10-31T15:01:23;31.93;;;8.93;;
289;SDS011;13193;48.874;9.086;2022-10-31T15:04:05;20.90;;;9.23;;
289;SDS011;13193;48.874;9.086;2022-10-31T15:06:50;21.63;;;9.40;;
289;SDS011;13193;48.874;9.086;2022-10-31T15:09:23;18.87;;;8.77;;
289;SDS011;13193;48.874;9.086;2022-10-31T15:12:22;21.83;;;9.57;;
289;SDS011;13193;48.874;9.086;2022-10-31T15:14:49;30.50;;;9.17;;
289;SDS011;13193;48.874;9.086;2022-10-31T15:17:17;36.03;;;9.93;;
289;SDS011;13193;48.874;9.086;2022-10-31T15:19:42;26.30;;;9.90;;
289;SDS011;13193;48.874;9.086;2022-10-31T15:22:19;22.57;;;9.00;;
289;SDS011;13193;48.874;9.086;2022-10-31T15:24:48;22.47;;;9.47;;
289;SDS011;13193;48.874;9.086;2022-10-31T15:27:21;26.63;;;10.23;;
289;SDS011;13193;48.874;9.086;2022-10-31T15:29:48;24.83;;;9.87;;
289;SDS011;13193;48.874;9.086;2022-10-31T15:32:18;21.40;;;8.70;;
289;SDS011;13193;48.874;9.086;2022-10-31T15:34:48;28.10;;;11.10;;
289;SDS011;13193;48.874;9.086;2022-10-31T15:37:20;26.93;;;10.07;;
289;SDS011;13193;48.874;9.086;2022-10-31T15:39:48;33.17;;;10.73;;
289;SDS011;13193;48.874;9.086;2022-10-31T15:42:27;23.23;;;9.73;;
289;SDS011;13193;48.874;9.086;2022-10-31T15:45:01;27.43;;;10.63;;
289;SDS011;13193;48.874;9.086;2022-10-31T15:47:30;20.70;;;10.00;;
289;SDS011;13193;48.874;9.086;2022-10-31T15:49:58;33.90;;;10.67;;
289;SDS011;13193;48.874;9.086;2022-10-31T15:52:33;33.60;;;10.70;;
289;SDS011;13193;48.874;9.086;2022-10-31T15:55:04;28.00;;;10.17;;
289;SDS011;13193;48.874;9.086;2022-10-31T15:57:34;26.80;;;9.57;;
289;SDS011;13193;48.874;9.086;2022-10-31T16:00:06;28.00;;;12.43;;
289;SDS011;13193;48.874;9.086;2022-10-31T16:02:45;35.37;;;13.43;;
289;SDS011;13193;48.874;9.086;2022-10-31T16:05:15;36.97;;;13.20;;
289;SDS011;13193;48.874;9.086;2022-10-31T16:07:49;26.93;;;12.40;;
289;SDS011;13193;48.874;9.086;2022-10-31T16:10:25;33.87;;;14.07;;
289;SDS011;13193;48.874;9.086;2022-10-31T16:12:51;28.67;;;13.83;;
289;SDS011;13193;48.874;9.086;2022-10-31T16:15:19;30.30;;;14.67;;
289;SDS011;13193;48.874;9.086;2022-10-31T16:17:49;35.40;;;14.90;;
289;SDS011;13193;48.874;9.086;2022-10-31T16:20:26;42.23;;;12.60;;
289;SDS011;13193;48.874;9.086;2022-10-31T16:22:54;31.87;;;14.57;;
289;SDS011;13193;48.874;9.086;2022-10-31T16:25:24;32.30;;;15.50;;
289;SDS011;13193;48.874;9.086;2022-10-31T16:27:52;42.90;;;15.53;;
289;SDS011;13193;48.874;9.086;2022-10-31T16:30:38;28.23;;;13.90;;
289;SDS011;13193;48.874;9.086;2022-10-31T16:33:20;35.23;;;14.13;;
289;SDS011;13193;48.874;9.086;2022-10-31T16:35:54;34.23;;;16.13;;
289;SDS011;13193;48.874;9.086;2022-10-31T16:38:21;60.23;;;14.63;;
289;SDS011;13193;48.874;9.086;2022-10-31T16:40:47;40.40;;;15.20;;
289;SDS011;13193;48.874;9.086;2022-10-31T16:43:15;31.10;;;14.40;;
289;SDS011;13193;48.874;9.086;2022-10-31T16:45:46;35.77;;;15.43;;
289;SDS011;13193;48.874;9.086;2022-10-31T16:48:18;39.30;;;17.80;;
289;SDS011;13193;48.874;9.086;2022-10-31T16:50:46;40.03;;;14.73;;
289;SDS011;13193;48.874;9.086;2022-10-31T16:53:12;42.70;;;17.43;;
289;SDS011;13193;48.874;9.086;2022-10-31T16:58:18;34.73;;;18.97;;
289;SDS011;13193;48.874;9.086;2022-10-31T17:00:47;41.77;;;18.00;;
289;SDS011;13193;48.874;9.086;2022-10-31T17:03:13;35.90;;;16.10;;
289;SDS011;13193;48.874;9.086;2022-10-31T17:05:39;33.57;;;15.30;;
289;SDS011;13193;48.874;9.086;2022-10-31T17:10:41;37.80;;;18.40;;
289;SDS011;13193;48.874;9.086;2022-10-31T17:13:20;36.63;;;16.70;;
289;SDS011;13193;48.874;9.086;2022-10-31T17:15:50;44.97;;;19.37;;
289;SDS011;13193;48.874;9.086;2022-10-31T17:18:19;50.80;;;22.90;;
289;SDS011;13193;48.874;9.086;2022-10-31T17:20:45;53.43;;;20.20;;
289;SDS011;13193;48.874;9.086;2022-10-31T17:23:12;41.00;;;18.93;;
289;SDS011;13193;48.874;9.086;2022-10-31T17:25:39;48.47;;;19.83;;
289;SDS011;13193;48.874;9.086;2022-10-31T17:28:06;50.63;;;19.10;;
289;SDS011;13193;48.874;9.086;2022-10-31T17:30:35;61.10;;;28.37;;
289;SDS011;13193;48.874;9.086;2022-10-31T17:33:01;53.70;;;26.30;;
289;SDS011;13193;48.874;9.086;2022-10-31T17:35:27;53.93;;;27.10;;
289;SDS011;13193;48.874;9.086;2022-10-31T17:37:53;56.53;;;26.47;;
289;SDS011;13193;48.874;9.086;2022-10-31T17:40:19;53.60;;;26.63;;
289;SDS011;13193;48.874;9.086;2022-10-31T17:42:52;61.10;;;27.43;;